SCC51YZ EGPO-EGPL

Flight info

Callsign SCC51YZ
Flight time 0h 19m
Altitude 12000
Route STN DCT BEN
Aircraft AT76/M-SDFGIRY/S

Departure

Time 2026-04-21 20:13
Airport Stornoway Airport (EGPO)

Arrival

Time 2026-04-21 20:32
Airport Benbecula Airport (EGPL)
Time Latitude Longitude Altitude Speed Heading
2026-04-21 20:05 58.21835 -6.32498 25 ft 0 kts 320°
2026-04-21 20:07 58.21835 -6.32494 26 ft 0 kts 20°
2026-04-21 20:08 58.21835 -6.32493 25 ft 0 kts 36°
2026-04-21 20:10 58.21880 -6.32427 25 ft 0 kts 36°
2026-04-21 20:10 58.21992 -6.32548 26 ft 41 kts 315°
2026-04-21 20:11 58.22106 -6.32913 26 ft 29 kts 220°
2026-04-21 20:11 58.21802 -6.33231 24 ft 51 kts 209°
2026-04-21 20:11 58.21636 -6.33535 25 ft 22 kts 146°
2026-04-21 20:11 58.21397 -6.33368 25 ft 45 kts 172°
2026-04-21 20:12 58.21195 -6.33615 30 ft 40 kts 239°
2026-04-21 20:12 58.21159 -6.33813 31 ft 4 kts 355°
2026-04-21 20:12 58.21170 -6.33778 31 ft 18 kts 65°
2026-04-21 20:12 58.21511 -6.32724 313 ft 89 kts 59°
2026-04-21 20:13 58.21900 -6.31762 950 ft 113 kts 49°
2026-04-21 20:13 58.22512 -6.30539 1469 ft 140 kts 56°
2026-04-21 20:13 58.23063 -6.28958 2176 ft 146 kts 77°
2026-04-21 20:13 58.22801 -6.27090 2953 ft 155 kts 119°
2026-04-21 20:14 58.22261 -6.25291 3788 ft 159 kts 115°
2026-04-21 20:14 58.21760 -6.23407 4613 ft 161 kts 112°
2026-04-21 20:14 58.21194 -6.21609 5407 ft 164 kts 136°
2026-04-21 20:14 58.20054 -6.21115 6158 ft 182 kts 187°
2026-04-21 20:15 58.18865 -6.22005 6987 ft 185 kts 201°
2026-04-21 20:15 58.17741 -6.23209 7776 ft 187 kts 210°
2026-04-21 20:15 58.16698 -6.24685 8568 ft 188 kts 216°
2026-04-21 20:15 58.15712 -6.26316 9368 ft 188 kts 219°
2026-04-21 20:16 58.14754 -6.27981 10181 ft 187 kts 220°
2026-04-21 20:16 58.13796 -6.29632 10925 ft 186 kts 219°
2026-04-21 20:16 58.12832 -6.31260 11643 ft 185 kts 219°
2026-04-21 20:16 58.11832 -6.32921 12009 ft 208 kts 219°
2026-04-21 20:17 58.10652 -6.34888 11957 ft 241 kts 219°
2026-04-21 20:17 58.09333 -6.37074 11930 ft 262 kts 219°
2026-04-21 20:17 58.07920 -6.39407 11918 ft 276 kts 219°
2026-04-21 20:17 58.06450 -6.41828 11905 ft 285 kts 219°
2026-04-21 20:18 58.05456 -6.43463 11901 ft 288 kts 219°
2026-04-21 20:18 58.03417 -6.46824 11894 ft 293 kts 219°
2026-04-21 20:18 58.01860 -6.49336 11854 ft 296 kts 217°
2026-04-21 20:18 58.00238 -6.51734 11637 ft 297 kts 215°
2026-04-21 20:19 57.98566 -6.54037 11200 ft 300 kts 213°
2026-04-21 20:19 57.96846 -6.56253 10633 ft 298 kts 211°
2026-04-21 20:19 57.95180 -6.58366 10110 ft 276 kts 211°
2026-04-21 20:19 57.93701 -6.60401 8998 ft 258 kts 215°
2026-04-21 20:20 57.92328 -6.62540 7753 ft 256 kts 219°
2026-04-21 20:20 57.91031 -6.64824 6544 ft 255 kts 221°
2026-04-21 20:20 57.90223 -6.66379 5776 ft 248 kts 226°
2026-04-21 20:20 57.89088 -6.68775 4587 ft 246 kts 224°
2026-04-21 20:21 57.87902 -6.71077 3470 ft 243 kts 222°
2026-04-21 20:21 57.86711 -6.73319 2368 ft 242 kts 220°
2026-04-21 20:21 57.85086 -6.76231 1910 ft 242 kts 218°
2026-04-21 20:21 57.83869 -6.78295 2043 ft 231 kts 218°
2026-04-21 20:22 57.83059 -6.79637 2036 ft 230 kts 217°
2026-04-21 20:22 57.80468 -6.83501 1277 ft 247 kts 210°
2026-04-21 20:22 57.79177 -6.85466 1354 ft 233 kts 227°
2026-04-21 20:23 57.78384 -6.88112 1256 ft 233 kts 246°
2026-04-21 20:23 57.77798 -6.90789 1686 ft 212 kts 245°
2026-04-21 20:23 57.77236 -6.93258 1960 ft 203 kts 244°
2026-04-21 20:23 57.76603 -6.95783 1944 ft 232 kts 241°
2026-04-21 20:24 57.75769 -6.98527 2169 ft 246 kts 235°
2026-04-21 20:24 57.74838 -7.01102 2501 ft 241 kts 231°
2026-04-21 20:24 57.73810 -7.03702 2511 ft 258 kts 230°
2026-04-21 20:24 57.72679 -7.06383 2595 ft 264 kts 228°
2026-04-21 20:25 57.71471 -7.08977 2708 ft 268 kts 224°
2026-04-21 20:25 57.70174 -7.11439 2838 ft 266 kts 223°
2026-04-21 20:25 57.68896 -7.13866 3063 ft 254 kts 223°
2026-04-21 20:25 57.67669 -7.16255 2897 ft 252 kts 223°
2026-04-21 20:26 57.66462 -7.18523 3041 ft 243 kts 221°
2026-04-21 20:26 57.65228 -7.20773 2812 ft 251 kts 221°
2026-04-21 20:26 57.64016 -7.22977 3042 ft 239 kts 222°
2026-04-21 20:26 57.62826 -7.25208 2896 ft 246 kts 222°
2026-04-21 20:27 57.61606 -7.27393 3012 ft 238 kts 219°
2026-04-21 20:27 57.60355 -7.29426 2944 ft 241 kts 216°
2026-04-21 20:27 57.58983 -7.31372 2499 ft 255 kts 211°
2026-04-21 20:27 57.57525 -7.33296 2310 ft 256 kts 214°
2026-04-21 20:28 57.56223 -7.35249 2151 ft 208 kts 216°
2026-04-21 20:28 57.55259 -7.36975 1600 ft 186 kts 223°
2026-04-21 20:28 57.54363 -7.38612 1216 ft 171 kts 217°
2026-04-21 20:28 57.53453 -7.40027 850 ft 168 kts 215°
2026-04-21 20:29 57.52597 -7.41183 823 ft 144 kts 208°
2026-04-21 20:29 57.51729 -7.42069 618 ft 140 kts 200°
2026-04-21 20:29 57.50858 -7.42787 482 ft 135 kts 198°
2026-04-21 20:29 57.49977 -7.43302 543 ft 129 kts 188°
2026-04-21 20:30 57.49049 -7.43616 438 ft 139 kts 179°
2026-04-21 20:30 57.48175 -7.43441 504 ft 119 kts 144°
2026-04-21 20:30 57.47496 -7.42691 574 ft 116 kts 137°
2026-04-21 20:30 57.47018 -7.41584 523 ft 112 kts 102°
2026-04-21 20:31 57.46899 -7.40218 547 ft 105 kts 88°
2026-04-21 20:31 57.47100 -7.38946 562 ft 104 kts 58°
2026-04-21 20:31 57.47494 -7.37927 164 ft 93 kts 54°
2026-04-21 20:31 57.47852 -7.36968 39 ft 88 kts 55°
2026-04-21 20:32 57.48172 -7.36093 21 ft 78 kts 53°
2026-04-21 20:32 57.48315 -7.35719 20 ft 16 kts 55°
2026-04-21 20:32 57.48366 -7.35480 21 ft 9 kts 131°
2026-04-21 20:32 57.48260 -7.35529 20 ft 7 kts 205°
2026-04-21 20:33 57.48171 -7.35594 20 ft 12 kts 199°
2026-04-21 20:33 57.48160 -7.35601 20 ft 0 kts 198°
2026-04-21 20:34 57.48096 -7.35640 20 ft 27 kts 197°
2026-04-21 20:34 57.47923 -7.35762 20 ft 30 kts 201°
2026-04-21 20:34 57.47778 -7.35857 21 ft 21 kts 200°
2026-04-21 20:34 57.47625 -7.35993 19 ft 21 kts 237°
2026-04-21 20:35 57.47633 -7.36327 19 ft 39 kts 277°
2026-04-21 20:35 57.47643 -7.36802 21 ft 23 kts 270°
2026-04-21 20:35 57.47692 -7.37233 21 ft 38 kts 277°
2026-04-21 20:35 57.47598 -7.37460 23 ft 21 kts 145°
2026-04-21 20:36 57.47502 -7.37291 21 ft 8 kts 110°
2026-04-21 20:36 57.47516 -7.37220 22 ft 11 kts 27°
2026-04-21 20:36 57.47527 -7.37213 21 ft 0 kts 17°
2026-04-21 20:39 57.47490 -7.37218 22 ft 0 kts 219°
2026-04-21 20:40 57.47468 -7.37286 21 ft 0 kts 219°
2026-04-21 20:40 57.47472 -7.37283 22 ft 0 kts
2026-04-21 20:40 57.47509 -7.37134 21 ft 0 kts